Time;durP1;ratioP1;P1;durP2;ratioP2;P2;SDS_P1;SDS_P2;PMS_P1;PMS_P2;Temp;Humidity;BMP_temperature;BMP_pressure;BME280_temperature;BME280_humidity;BME280_pressure;Samples;Min_cycle;Max_cycle;Signal;HPM_P1;HPM_P2
2022/04/04 00:03:14;;;;;;;0.45;0.40;;;;;;;18.81;27.19;101942.13;16142030;19;132190;-42
2022/04/04 00:08:37;;;;;;;0.40;0.40;;;;;;;18.77;26.96;101931.47;16132262;19;130700;-41
2022/04/04 00:13:58;;;;;;;0.93;0.50;;;;;;;18.74;27.08;101931.06;16138519;19;130105;-42
2022/04/04 00:19:22;;;;;;;1.10;0.55;;;;;;;18.71;26.99;101923.19;16136699;19;130118;-42
2022/04/04 00:24:44;;;;;;;0.50;0.40;;;;;;;18.68;27.03;101915.31;16137520;19;128894;-45
2022/04/04 00:30:06;;;;;;;1.85;0.40;;;;;;;18.65;27.30;101905.53;16134752;19;129899;-44
2022/04/04 00:35:29;;;;;;;0.50;0.50;;;;;;;18.63;27.19;101893.81;16139488;19;129011;-41
2022/04/04 00:40:51;;;;;;;0.93;0.40;;;;;;;18.58;27.29;101877.84;16136754;19;130226;-44
2022/04/04 00:46:13;;;;;;;0.55;0.40;;;;;;;18.55;27.00;101881.06;16134754;19;131660;-43
2022/04/04 00:51:36;;;;;;;0.50;0.40;;;;;;;18.54;27.21;101871.03;16133706;19;129673;-42
2022/04/04 00:57:01;;;;;;;0.60;0.40;;;;;;;18.51;27.19;101863.19;16137569;19;129681;-42
2022/04/04 01:02:23;;;;;;;0.77;0.47;;;;;;;18.49;27.16;101857.03;16136503;19;129736;-44
2022/04/04 01:07:45;;;;;;;0.85;0.50;;;;;;;18.46;27.43;101850.00;16135268;19;130049;-46
2022/04/04 01:13:06;;;;;;;1.10;0.40;;;;;;;18.44;27.03;101848.53;16137060;19;130010;-44
2022/04/04 01:18:28;;;;;;;0.55;0.40;;;;;;;18.42;27.49;101834.91;16144668;19;129269;-44
2022/04/04 01:23:52;;;;;;;0.30;0.30;;;;;;;18.39;27.56;101834.47;16148844;19;130518;-42
2022/04/04 01:29:14;;;;;;;1.23;0.40;;;;;;;18.37;27.34;101825.53;16147166;19;129294;-46
2022/04/04 01:34:36;;;;;;;1.30;0.50;;;;;;;18.33;27.06;101814.06;16150429;19;129456;-41
2022/04/04 01:39:58;;;;;;;0.90;0.50;;;;;;;18.29;27.18;101805.31;16148056;19;129253;-46
2022/04/04 01:46:23;;;;;;;2.22;0.40;;;;;;;18.28;27.61;101791.69;16147812;19;129978;-45
2022/04/04 01:51:02;;;;;;;0.82;0.40;;;;;;;18.25;27.19;101784.69;16143874;19;129343;-43
2022/04/04 01:56:24;;;;;;;1.33;0.40;;;;;;;18.23;27.33;101772.13;16147781;19;129522;-42
2022/04/04 02:01:46;;;;;;;0.38;0.38;;;;;;;18.22;27.28;101765.75;16150609;19;132019;-45
2022/04/04 02:07:08;;;;;;;0.30;0.30;;;;;;;18.19;27.28;101757.03;16147865;19;129661;-45
2022/04/04 02:12:30;;;;;;;0.47;0.40;;;;;;;18.18;27.63;101749.78;16149196;19;131848;-44
2022/04/04 02:17:52;;;;;;;0.70;0.40;;;;;;;18.14;27.29;101741.09;16147673;19;129187;-43
2022/04/04 02:23:18;;;;;;;0.80;0.40;;;;;;;18.12;27.45;101730.22;16147139;19;129787;-45
2022/04/04 02:28:40;;;;;;;0.52;0.45;;;;;;;18.10;27.30;101728.75;16143146;19;129412;-43
2022/04/04 02:34:02;;;;;;;1.10;0.40;;;;;;;18.09;27.53;101719.59;16147592;19;130232;-44
2022/04/04 02:39:24;;;;;;;0.82;0.40;;;;;;;18.06;27.68;101711.75;16146254;19;129244;-44
2022/04/04 02:44:46;;;;;;;3.65;0.40;;;;;;;18.05;27.79;101698.97;16144366;19;129355;-42
2022/04/04 02:50:09;;;;;;;0.98;0.40;;;;;;;18.03;27.84;101680.88;16141519;19;130696;-46
2022/04/04 03:01:11;;;;;;;0.80;0.50;;;;;;;17.98;27.68;101664.91;16144316;19;130339;-44
2022/04/04 03:06:35;;;;;;;1.63;0.50;;;;;;;17.98;27.80;101659.38;16143814;19;129856;-46
2022/04/04 03:11:57;;;;;;;1.58;0.50;;;;;;;17.95;27.66;101651.56;16137366;19;128958;-43
2022/04/04 03:17:19;;;;;;;1.23;0.30;;;;;;;17.92;27.78;101640.91;16142244;19;129402;-46
2022/04/04 03:22:45;;;;;;;0.85;0.50;;;;;;;17.92;27.53;101629.84;16143273;19;129352;-47
2022/04/04 03:28:07;;;;;;;0.40;0.30;;;;;;;17.88;27.73;101610.06;16138716;19;129100;-44
2022/04/04 03:33:28;;;;;;;0.40;0.30;;;;;;;17.87;27.91;101600.06;16143837;19;130072;-43
2022/04/04 03:38:50;;;;;;;0.60;0.30;;;;;;;17.86;27.90;101592.84;16142225;19;129627;-42
2022/04/04 03:44:12;;;;;;;0.75;0.40;;;;;;;17.85;27.88;101580.06;16140646;19;129601;-45
2022/04/04 03:49:34;;;;;;;0.40;0.38;;;;;;;17.82;27.61;101570.31;16139218;19;128919;-42
2022/04/04 03:54:56;;;;;;;0.60;0.40;;;;;;;17.82;27.81;101558.38;16141797;19;129498;-43
2022/04/04 04:00:20;;;;;;;1.00;0.40;;;;;;;17.80;27.58;101549.44;16141501;19;129390;-49
2022/04/04 04:05:42;;;;;;;1.90;0.35;;;;;;;17.79;27.98;101542.22;16137619;19;129028;-42
2022/04/04 04:11:03;;;;;;;2.25;0.40;;;;;;;17.87;28.10;101532.78;16136982;19;130894;-41
2022/04/04 04:16:26;;;;;;;0.85;0.35;;;;;;;18.32;27.72;101518.72;16137314;19;129603;-42
2022/04/04 04:21:48;;;;;;;0.85;0.40;;;;;;;19.11;26.72;101519.91;16133696;19;129632;-46
2022/04/04 04:27:10;;;;;;;0.43;0.40;;;;;;;19.93;25.94;101510.94;16139043;19;129554;-43
2022/04/04 04:32:31;;;;;;;0.40;0.38;;;;;;;20.39;25.60;101511.16;16138656;19;128864;-44
2022/04/04 04:37:54;;;;;;;1.63;0.40;;;;;;;20.53;25.00;101503.44;16139109;19;130598;-46
2022/04/04 04:43:16;;;;;;;1.13;0.38;;;;;;;20.50;25.35;101490.00;16135856;19;129592;-45
2022/04/04 04:48:38;;;;;;;1.13;0.40;;;;;;;20.41;25.38;101483.16;16132177;19;130124;-42
2022/04/04 04:54:00;;;;;;;0.50;0.50;;;;;;;20.27;25.73;101472.31;16135353;19;129868;-44
2022/04/04 04:59:21;;;;;;;0.90;0.40;;;;;;;20.11;25.40;101470.25;16137411;19;129862;-45
2022/04/04 05:04:43;;;;;;;0.77;0.50;;;;;;;19.96;25.78;101467.97;16137893;19;129422;-42
2022/04/04 05:10:05;;;;;;;0.40;0.40;;;;;;;19.78;26.04;101463.38;16133437;19;129582;-41
2022/04/04 05:15:27;;;;;;;0.77;0.50;;;;;;;19.63;26.13;101444.44;16135426;19;130005;-45
2022/04/04 05:20:50;;;;;;;1.08;0.43;;;;;;;19.48;26.21;101436.56;16132253;19;129371;-44
2022/04/04 05:26:12;;;;;;;1.05;0.52;;;;;;;19.36;26.31;101417.97;16133650;19;130847;-42
2022/04/04 05:31:34;;;;;;;1.42;0.60;;;;;;;19.26;26.44;101417.72;16132435;19;129431;-42
2022/04/04 05:36:56;;;;;;;3.20;0.55;;;;;;;19.18;26.60;101406.94;16136812;19;129986;-42
2022/04/04 05:42:18;;;;;;;1.73;0.50;;;;;;;19.10;26.57;101404.50;16134533;19;129064;-41
2022/04/04 05:47:40;;;;;;;1.88;0.60;;;;;;;19.03;27.07;101396.28;16129068;19;129646;-44
2022/04/04 05:53:02;;;;;;;0.88;0.50;;;;;;;18.95;26.97;101391.94;16132215;19;129949;-41
2022/04/04 05:58:24;;;;;;;1.05;0.40;;;;;;;18.88;26.86;101380.97;16129873;19;129622;-42
2022/04/04 06:03:46;;;;;;;2.63;0.60;;;;;;;18.81;26.92;101373.81;16137064;19;130277;-43
2022/04/04 06:09:08;;;;;;;3.05;0.80;;;;;;;18.76;27.13;101352.38;16149720;19;129251;-41
2022/04/04 06:14:30;;;;;;;0.85;0.60;;;;;;;18.71;27.43;101344.72;16152055;19;129098;-41
2022/04/04 06:19:51;;;;;;;2.22;0.60;;;;;;;18.68;27.13;101339.69;16147796;19;129549;-41
2022/04/04 06:25:14;;;;;;;3.47;0.90;;;;;;;18.65;27.51;101329.06;16148311;19;129112;-41
2022/04/04 06:30:36;;;;;;;2.70;0.50;;;;;;;18.59;27.18;101321.69;16144679;19;130436;-41
2022/04/04 06:35:58;;;;;;;2.17;0.75;;;;;;;18.55;27.29;101317.72;16144491;19;129688;-42
2022/04/04 06:41:19;;;;;;;5.55;1.15;;;;;;;18.52;27.43;101310.72;16141568;19;128855;-41
2022/04/04 06:46:41;;;;;;;2.63;0.73;;;;;;;18.49;27.78;101304.78;16141775;19;130381;-43
2022/04/04 06:52:04;;;;;;;2.72;0.90;;;;;;;18.43;27.72;101304.69;16180892;19;129511;-43
2022/04/04 06:57:26;;;;;;;1.92;0.73;;;;;;;18.40;27.62;101285.75;16215161;19;128800;-40
2022/04/04 07:02:55;;;;;;;2.47;0.85;;;;;;;18.37;27.92;101277.88;16191998;19;129125;-45
2022/04/04 07:08:18;;;;;;;2.38;0.70;;;;;;;18.36;27.51;101273.41;16144402;19;129067;-41
2022/04/04 07:13:40;;;;;;;3.22;0.70;;;;;;;18.36;27.48;101253.19;16143412;19;128920;-42
2022/04/04 07:19:02;;;;;;;1.92;0.80;;;;;;;18.37;27.76;101238.25;16140849;19;129425;-41
2022/04/04 07:24:24;;;;;;;4.72;0.70;;;;;;;18.36;27.77;101237.41;16147213;19;129283;-41
2022/04/04 07:29:46;;;;;;;1.13;0.60;;;;;;;18.36;27.70;101226.31;16143382;19;129583;-41
2022/04/04 07:35:11;;;;;;;1.77;0.70;;;;;;;18.32;27.71;101214.03;16144734;19;129296;-40
2022/04/04 07:40:32;;;;;;;0.83;0.80;;;;;;;18.29;27.74;101203.44;16145622;19;128815;-41
2022/04/04 07:45:55;;;;;;;1.70;0.63;;;;;;;18.27;27.64;101189.84;16141223;19;129791;-41
2022/04/04 07:51:17;;;;;;;1.92;0.70;;;;;;;18.25;27.82;101180.91;16143666;19;129358;-41
2022/04/04 07:56:39;;;;;;;1.50;0.65;;;;;;;18.25;27.51;101180.06;16144223;19;129526;-42
2022/04/04 08:02:01;;;;;;;1.33;0.95;;;;;;;18.24;27.79;101175.59;16143177;19;128955;-41
2022/04/04 08:07:23;;;;;;;2.83;0.75;;;;;;;18.21;27.49;101154.78;16141965;19;129759;-41
2022/04/04 08:12:50;;;;;;;1.20;0.50;;;;;;;18.19;27.40;101164.41;16136030;19;129173;-41
2022/04/04 08:18:12;;;;;;;1.95;0.70;;;;;;;18.14;27.75;101152.09;16140442;19;130486;-44
2022/04/04 08:23:33;;;;;;;1.90;0.80;;;;;;;18.12;27.39;101131.28;16141888;19;129604;-41
2022/04/04 08:28:55;;;;;;;1.85;0.85;;;;;;;18.10;27.32;101134.28;16136860;19;129157;-41
2022/04/04 08:34:17;;;;;;;1.27;0.80;;;;;;;18.09;27.59;101124.28;16141268;19;129568;-41
2022/04/04 08:39:39;;;;;;;2.35;0.70;;;;;;;18.06;27.68;101121.16;16140131;19;128926;-42
2022/04/04 08:45:03;;;;;;;3.22;0.60;;;;;;;18.03;27.81;101111.41;16142512;19;129390;-41
2022/04/04 08:50:25;;;;;;;1.55;0.70;;;;;;;18.01;27.63;101105.25;16137869;19;129373;-41
2022/04/04 08:55:47;;;;;;;1.08;0.70;;;;;;;18.00;27.40;101084.19;16139151;19;129215;-41
2022/04/04 09:01:09;;;;;;;2.22;0.80;;;;;;;17.97;27.25;101074.44;16138444;19;129687;-43
2022/04/04 09:06:46;;;;;;;2.65;0.75;;;;;;;17.96;27.36;101074.69;16137323;19;130176;-41
2022/04/04 09:12:21;;;;;;;1.90;0.77;;;;;;;17.95;27.37;101075.78;16134284;19;131256;-40
2022/04/04 09:17:46;;;;;;;2.00;0.82;;;;;;;17.92;27.34;101065.16;16137419;19;129323;-41
2022/04/04 09:23:07;;;;;;;3.40;0.82;;;;;;;17.90;27.39;101056.25;16134599;19;128992;-41
2022/04/04 09:28:29;;;;;;;2.10;0.77;;;;;;;17.88;27.75;101044.56;16138540;19;129719;-43
2022/04/04 09:33:51;;;;;;;1.58;0.88;;;;;;;17.85;27.54;101038.44;16144090;19;129068;-40
2022/04/04 09:39:15;;;;;;;1.02;0.60;;;;;;;17.82;27.29;101019.56;16145466;19;128837;-41
2022/04/04 09:44:38;;;;;;;1.08;0.60;;;;;;;17.80;27.67;101024.47;16150416;19;129221;-42
2022/04/04 09:50:00;;;;;;;3.22;0.70;;;;;;;17.75;27.84;101029.88;16148737;19;129049;-43
2022/04/04 09:55:29;;;;;;;2.10;0.80;;;;;;;17.74;27.92;101019.88;16147399;19;129089;-41
2022/04/04 10:00:51;;;;;;;1.95;0.65;;;;;;;17.71;27.70;101020.38;16150010;19;129383;-40
2022/04/04 10:06:14;;;;;;;2.65;0.80;;;;;;;17.70;27.85;101013.16;16146108;19;129096;-40
2022/04/04 10:11:40;;;;;;;1.08;0.60;;;;;;;17.69;27.57;101017.00;16146406;19;129444;-40
2022/04/04 10:17:03;;;;;;;1.45;0.77;;;;;;;17.66;27.73;101006.41;16149098;19;129242;-43
2022/04/04 10:22:26;;;;;;;2.13;0.80;;;;;;;17.65;27.88;100993.66;16156038;19;129172;-41
2022/04/04 10:27:48;;;;;;;1.30;0.70;;;;;;;17.62;27.70;100997.75;16147844;19;130037;-41
2022/04/04 10:33:22;;;;;;;1.50;0.60;;;;;;;17.63;27.88;100990.28;16143723;19;130104;-41
2022/04/04 10:38:44;;;;;;;3.65;0.80;;;;;;;17.60;27.86;100982.47;16148089;19;130216;-40
2022/04/04 10:44:07;;;;;;;1.15;0.75;;;;;;;17.60;28.03;100991.59;16146813;19;129721;-41
2022/04/04 10:49:36;;;;;;;2.95;0.90;;;;;;;17.59;27.80;100984.38;16144232;19;129310;-43
2022/04/04 10:55:00;;;;;;;1.42;0.60;;;;;;;17.58;27.88;100981.84;16148336;19;128874;-42
2022/04/04 11:00:52;;;;;;;1.75;0.60;;;;;;;17.57;28.02;100989.31;16140379;19;130029;-41
2022/04/04 11:11:58;;;;;;;5.05;0.60;;;;;;;17.53;27.77;100975.06;16144580;19;129507;-45
2022/04/04 11:17:33;;;;;;;0.60;0.50;;;;;;;17.53;28.39;100974.25;16145392;19;130012;-41
2022/04/04 11:22:57;;;;;;;3.08;0.73;;;;;;;17.50;28.04;100956.19;16145413;19;129842;-41
2022/04/04 11:28:22;;;;;;;1.52;0.60;;;;;;;17.49;28.35;100953.66;16145082;19;131233;-43
2022/04/04 11:33:47;;;;;;;;;;;;;;;17.46;27.93;100954.13;16140306;19;129386;-40
2022/04/04 11:39:10;;;;;;;1.23;0.52;;;;;;;17.50;28.30;100945.13;16143059;19;130538;-40
2022/04/04 11:44:34;;;;;;;1.90;0.50;;;;;;;17.49;28.18;100934.31;16142135;19;129279;-41
2022/04/04 11:50:01;;;;;;;1.23;0.40;;;;;;;17.47;28.34;100922.63;16141266;19;130292;-42
2022/04/04 11:55:25;;;;;;;0.60;0.40;;;;;;;17.47;28.25;100919.88;16141529;19;128824;-40
2022/04/04 12:00:54;;;;;;;1.70;0.55;;;;;;;17.45;28.16;100911.81;16142749;19;131090;-41
2022/04/04 12:06:16;;;;;;;1.33;0.57;;;;;;;17.44;28.08;100912.03;16141552;19;128945;-46
2022/04/04 12:11:38;;;;;;;1.08;0.40;;;;;;;17.43;28.20;100900.16;16139002;19;129491;-41
2022/04/04 12:17:00;;;;;;;0.80;0.52;;;;;;;17.42;28.52;100900.38;16140540;19;129474;-43
2022/04/04 12:28:04;;;;;;;0.98;0.50;;;;;;;17.39;28.33;100898.94;16140121;19;129585;-42
2022/04/04 12:33:32;;;;;;;3.10;0.82;;;;;;;17.39;28.72;100868.50;16134026;19;129739;-42
2022/04/04 12:38:58;;;;;;;0.77;0.47;;;;;;;17.37;28.56;100867.91;16136976;19;129122;-41
2022/04/04 12:44:23;;;;;;;1.58;0.60;;;;;;;17.36;28.78;100880.91;16139178;19;129212;-42
2022/04/04 12:49:45;;;;;;;1.50;0.60;;;;;;;17.36;28.81;100869.84;16141037;19;130017;-41
2022/04/04 12:55:23;;;;;;;0.75;0.50;;;;;;;17.34;28.47;100858.16;16138114;19;129362;-41
2022/04/04 13:00:45;;;;;;;0.90;0.50;;;;;;;17.33;28.93;100858.41;16138864;19;129683;-43
2022/04/04 13:06:11;;;;;;;0.90;0.55;;;;;;;17.32;28.63;100846.50;16138774;19;129372;-41
2022/04/04 13:11:47;;;;;;;1.15;0.43;;;;;;;17.31;28.94;100838.47;16131156;19;129081;-41
2022/04/04 13:17:09;;;;;;;1.52;0.50;;;;;;;17.28;28.62;100828.72;16137972;19;129882;-42
2022/04/04 13:22:31;;;;;;;2.45;0.60;;;;;;;17.29;28.91;100835.09;16139558;19;129404;-41
2022/04/04 13:27:53;;;;;;;0.93;0.50;;;;;;;17.25;28.60;100831.97;16135290;19;130859;-41
2022/04/04 13:33:15;;;;;;;0.75;0.50;;;;;;;17.24;28.76;100833.03;16132498;19;129716;-42
2022/04/04 13:38:37;;;;;;;1.55;0.50;;;;;;;17.23;28.84;100826.66;16137443;19;128951;-41
2022/04/04 13:44:00;;;;;;;1.67;0.60;;;;;;;17.21;28.88;100826.06;16135498;19;128953;-42
2022/04/04 13:49:22;;;;;;;1.13;0.50;;;;;;;17.21;28.85;100823.31;16130649;19;128860;-43
2022/04/04 13:54:45;;;;;;;0.80;0.50;;;;;;;17.30;29.18;100812.72;16129324;19;130125;-43
2022/04/04 14:00:07;;;;;;;1.50;0.50;;;;;;;17.61;28.70;100809.84;16133409;19;129950;-41
2022/04/04 14:05:29;;;;;;;0.82;0.40;;;;;;;18.11;28.53;100798.19;16131947;19;130900;-40
2022/04/04 14:11:11;;;;;;;8.10;0.60;;;;;;;18.75;27.84;100797.19;16125646;19;130223;-41
2022/04/04 14:16:34;;;;;;;4.22;0.40;;;;;;;19.31;27.41;100790.09;16130609;19;129412;-44
2022/04/04 14:21:56;;;;;;;2.67;0.45;;;;;;;19.75;27.21;100781.84;16131932;19;129734;-41
2022/04/04 14:27:18;;;;;;;3.22;0.60;;;;;;;20.10;27.03;100783.41;16143585;19;129464;-44
2022/04/04 14:32:43;;;;;;;4.57;0.50;;;;;;;20.41;26.33;100778.16;16144766;19;129644;-42
2022/04/04 14:38:05;;;;;;;4.18;0.55;;;;;;;20.64;26.50;100764.22;16145742;19;129580;-40
2022/04/04 14:43:26;;;;;;;5.35;0.57;;;;;;;20.73;26.33;100762.63;16147399;19;129387;-42
2022/04/04 14:48:49;;;;;;;1.90;0.30;;;;;;;20.69;26.36;100742.00;16146678;19;131602;-42
2022/04/04 14:54:11;;;;;;;2.30;0.43;;;;;;;20.55;26.42;100739.69;16140191;19;130192;-40
2022/04/04 14:59:33;;;;;;;2.40;0.40;;;;;;;20.40;26.47;100743.16;16147651;19;129706;-40
2022/04/04 15:04:55;;;;;;;1.85;0.50;;;;;;;20.22;26.69;100735.19;16144702;19;131060;-42
2022/04/04 15:10:18;;;;;;;3.72;0.45;;;;;;;20.04;26.97;100733.63;16144473;19;129825;-41
2022/04/04 15:15:40;;;;;;;2.13;0.50;;;;;;;19.87;27.53;100720.63;16207107;19;129208;-40
2022/04/04 15:21:04;;;;;;;5.75;0.52;;;;;;;19.74;27.45;100723.78;16214723;19;128423;-44
2022/04/04 15:26:28;;;;;;;3.95;0.68;;;;;;;19.58;27.79;100726.38;16211136;19;130285;-42
2022/04/04 15:31:51;;;;;;;0.90;0.30;;;;;;;19.46;28.01;100709.00;16205777;19;129275;-40
2022/04/04 15:37:14;;;;;;;6.22;0.73;;;;;;;19.35;28.00;100710.81;16206200;19;128523;-43
2022/04/04 15:42:36;;;;;;;2.08;0.30;;;;;;;19.23;28.33;100708.16;16208118;19;129254;-44
2022/04/04 15:47:59;;;;;;;2.05;0.40;;;;;;;19.14;28.52;100704.94;16205235;19;129082;-43
2022/04/04 15:53:20;;;;;;;2.65;0.40;;;;;;;19.09;29.06;100702.09;16193702;19;129454;-41
2022/04/04 15:58:42;;;;;;;2.33;0.60;;;;;;;19.10;29.43;100694.59;16202922;19;128749;-41
2022/04/04 16:04:04;;;;;;;2.30;0.40;;;;;;;19.17;29.40;100692.50;16208466;19;128874;-43
2022/04/04 16:09:26;;;;;;;1.95;0.65;;;;;;;19.23;29.39;100683.19;16207917;19;128882;-41
2022/04/04 16:14:48;;;;;;;2.42;0.77;;;;;;;19.25;29.37;100697.63;16201513;19;129296;-43
2022/04/04 16:20:30;;;;;;;2.60;0.80;;;;;;;19.21;29.39;100683.44;16209132;19;132893;-41
2022/04/04 16:25:52;;;;;;;3.65;0.80;;;;;;;19.17;29.84;100687.78;16157137;19;129336;-43
2022/04/04 16:31:15;;;;;;;2.30;0.80;;;;;;;19.12;30.06;100686.88;16138236;19;131574;-43
2022/04/04 16:36:38;;;;;;;1.65;0.77;;;;;;;19.06;30.20;100686.81;16138345;19;130096;-42
2022/04/04 16:41:59;;;;;;;1.98;0.70;;;;;;;19.01;30.36;100680.38;16139077;19;129410;-44
2022/04/04 16:47:22;;;;;;;7.78;0.80;;;;;;;18.95;30.36;100685.00;16128839;19;129644;-45
2022/04/04 16:52:43;;;;;;;7.15;1.02;;;;;;;19.01;30.38;100685.91;16133904;19;129305;-43
2022/04/04 16:58:05;;;;;;;4.93;0.77;;;;;;;19.31;30.21;100668.91;16139496;19;130273;-44
2022/04/04 17:03:31;;;;;;;3.40;0.52;;;;;;;19.78;29.90;100683.31;16134058;19;129470;-45
2022/04/04 17:08:53;;;;;;;6.75;0.90;;;;;;;20.22;29.71;100672.13;16137948;19;129475;-45
2022/04/04 17:14:14;;;;;;;4.88;0.70;;;;;;;20.55;29.23;100678.56;16132477;19;128809;-46
2022/04/04 17:19:36;;;;;;;3.75;0.80;;;;;;;20.85;28.98;100676.28;16137501;19;130053;-42
2022/04/04 17:24:58;;;;;;;1.95;0.50;;;;;;;20.97;28.82;100678.84;16136317;19;129114;-45
2022/04/04 17:30:20;;;;;;;4.63;0.77;;;;;;;20.92;28.86;100665.75;16133275;19;128927;-48
2022/04/04 17:35:41;;;;;;;6.32;0.65;;;;;;;20.81;29.09;100650.94;16128405;19;129749;-48
2022/04/04 17:41:03;;;;;;;2.97;0.68;;;;;;;20.65;29.55;100654.72;16125933;19;129713;-47
2022/04/04 17:46:25;;;;;;;2.97;0.52;;;;;;;20.53;29.75;100646.56;16126876;19;129352;-44
2022/04/04 17:51:47;;;;;;;2.95;0.63;;;;;;;20.42;30.06;100634.53;16129693;19;129844;-42
2022/04/04 17:57:09;;;;;;;5.50;0.63;;;;;;;20.31;29.97;100644.72;16132944;19;129431;-43
2022/04/04 18:02:30;;;;;;;1.48;0.57;;;;;;;20.18;29.99;100632.13;16148672;19;130745;-42
2022/04/04 18:07:52;;;;;;;2.42;0.60;;;;;;;20.12;29.95;100624.81;16145486;19;128952;-41
2022/04/04 18:13:14;;;;;;;1.27;0.60;;;;;;;20.05;30.15;100632.56;16143155;19;129521;-41
2022/04/04 18:18:36;;;;;;;1.85;0.50;;;;;;;20.11;30.26;100635.13;16145012;19;129730;-44
2022/04/04 18:23:58;;;;;;;1.65;0.57;;;;;;;20.31;30.29;100632.78;16145067;19;129022;-47
2022/04/04 18:29:21;;;;;;;1.40;0.30;;;;;;;20.63;29.77;100629.13;16143923;19;129297;-43
2022/04/04 18:34:43;;;;;;;1.17;0.40;;;;;;;21.02;29.73;100626.88;16139587;19;129558;-50
2022/04/04 18:40:08;;;;;;;1.63;0.40;;;;;;;21.37;29.32;100644.03;16144596;19;129874;-42
2022/04/04 18:45:35;;;;;;;1.55;0.40;;;;;;;21.62;29.18;100632.16;16142774;19;129791;-43
2022/04/04 18:50:58;;;;;;;2.42;0.30;;;;;;;21.83;28.91;100630.25;16144156;19;129472;-44
2022/04/04 18:56:22;;;;;;;1.25;0.30;;;;;;;22.02;28.60;100632.53;16144099;19;128907;-44
2022/04/04 19:01:44;;;;;;;3.03;0.67;;;;;;;22.18;28.47;100624.16;16137834;19;129489;-48
2022/04/04 19:07:06;;;;;;;1.10;0.40;;;;;;;22.26;28.61;100623.66;16140712;19;130167;-43
2022/04/04 19:12:28;;;;;;;5.07;0.40;;;;;;;22.33;28.35;100623.38;16140686;19;129897;-44
2022/04/04 19:17:50;;;;;;;0.40;0.20;;;;;;;22.40;28.16;100630.31;16141738;19;130503;-45
2022/04/04 19:23:13;;;;;;;4.03;0.73;;;;;;;22.44;27.97;100623.09;16145001;19;130708;-48
2022/04/04 19:28:35;;;;;;;2.25;0.60;;;;;;;22.43;27.87;100617.81;16137579;19;129300;-48
2022/04/04 19:33:57;;;;;;;0.77;0.47;;;;;;;22.47;28.34;100615.28;16140809;19;130221;-47
2022/04/04 19:39:19;;;;;;;2.20;0.32;;;;;;;22.57;28.38;100623.63;16140587;19;129192;-44
2022/04/04 19:44:41;;;;;;;1.80;0.30;;;;;;;22.66;28.12;100621.94;16140472;19;129446;-44
2022/04/04 19:50:04;;;;;;;5.75;0.68;;;;;;;22.71;27.81;100623.88;16143762;19;129489;-46
2022/04/04 19:55:26;;;;;;;1.23;0.60;;;;;;;22.77;28.09;100627.53;16139168;19;129638;-47
2022/04/04 20:00:48;;;;;;;6.35;0.50;;;;;;;22.85;28.02;100629.72;16139124;19;129266;-45
2022/04/04 20:06:10;;;;;;;3.78;0.38;;;;;;;22.89;28.22;100630.84;16139603;19;131092;-47
2022/04/04 20:11:32;;;;;;;7.90;0.43;;;;;;;22.84;28.56;100631.66;16140523;19;130169;-45
2022/04/04 20:16:54;;;;;;;5.70;0.43;;;;;;;22.72;28.52;100629.19;16136271;19;129787;-48
2022/04/04 20:22:16;;;;;;;6.70;0.45;;;;;;;22.54;28.38;100624.19;16139733;19;129200;-47
2022/04/04 20:27:38;;;;;;;7.03;0.85;;;;;;;22.33;28.71;100621.44;16137364;19;129863;-50
2022/04/04 20:33:01;;;;;;;4.90;0.40;;;;;;;22.11;29.20;100611.38;16134948;19;129267;-46
2022/04/04 20:38:22;;;;;;;3.08;0.40;;;;;;;21.89;29.95;100619.16;16138974;19;129042;-45
2022/04/04 20:43:44;;;;;;;0.80;0.30;;;;;;;21.70;29.73;100611.31;16135367;19;129906;-43
2022/04/04 20:49:06;;;;;;;1.48;0.60;;;;;;;21.47;29.93;100599.53;16137584;19;129183;-43
2022/04/04 20:54:29;;;;;;;3.78;0.30;;;;;;;21.31;30.15;100606.13;16134943;19;129013;-48
2022/04/04 20:59:51;;;;;;;2.67;0.40;;;;;;;21.14;30.66;100604.44;16141056;19;130023;-45
2022/04/04 21:05:15;;;;;;;6.20;0.40;;;;;;;20.96;30.51;100591.81;16138004;19;129835;-47
2022/04/04 21:10:36;;;;;;;4.07;0.40;;;;;;;20.83;30.86;100595.09;16139806;19;129396;-48
2022/04/04 21:15:58;;;;;;;2.05;0.30;;;;;;;20.68;30.91;100588.28;16130633;19;129634;-43
2022/04/04 21:21:20;;;;;;;3.45;0.60;;;;;;;20.55;31.00;100578.50;16132946;19;129882;-46
2022/04/04 21:26:42;;;;;;;1.23;0.38;;;;;;;20.43;31.03;100586.19;16135704;19;129274;-43
2022/04/04 21:32:06;;;;;;;1.75;0.40;;;;;;;20.32;31.19;100589.97;16136098;19;129329;-43
2022/04/04 21:37:28;;;;;;;1.02;0.30;;;;;;;20.22;31.05;100576.88;16151844;19;129346;-44
2022/04/04 21:42:50;;;;;;;0.75;0.30;;;;;;;20.13;31.45;100591.22;16151627;19;129094;-46
2022/04/04 21:48:12;;;;;;;3.03;0.30;;;;;;;20.04;31.11;100589.22;16146189;19;130035;-43
2022/04/04 21:53:34;;;;;;;1.15;0.40;;;;;;;19.96;31.09;100587.72;16149980;19;129235;-46
2022/04/04 21:58:55;;;;;;;0.88;0.30;;;;;;;19.88;31.21;100586.25;16151045;19;132369;-44
2022/04/04 22:04:17;;;;;;;1.08;0.32;;;;;;;19.81;31.67;100602.31;16148909;19;129721;-43
2022/04/04 22:09:39;;;;;;;0.28;0.28;;;;;;;19.74;31.63;100596.97;16149252;19;129352;-43
2022/04/04 22:15:01;;;;;;;0.68;0.20;;;;;;;19.66;31.38;100584.41;16144725;19;129533;-45
2022/04/04 22:20:22;;;;;;;1.05;0.30;;;;;;;19.59;31.76;100597.63;16149190;19;130569;-46
2022/04/04 22:25:44;;;;;;;0.35;0.20;;;;;;;19.53;31.85;100593.13;16147228;19;129148;-44
2022/04/04 22:31:06;;;;;;;0.30;0.20;;;;;;;19.49;31.84;100601.16;16148330;19;129714;-48
2022/04/04 22:36:28;;;;;;;0.52;0.20;;;;;;;19.45;31.61;100599.13;16141899;19;129868;-48
2022/04/04 22:41:50;;;;;;;0.22;0.10;;;;;;;19.40;31.89;100590.75;16146426;19;129931;-45
2022/04/04 22:47:11;;;;;;;0.63;0.20;;;;;;;19.34;31.70;100604.56;16141570;19;130651;-48
2022/04/04 22:52:33;;;;;;;0.30;0.20;;;;;;;19.31;31.57;100582.91;16142694;19;129078;-47
2022/04/04 22:57:55;;;;;;;1.35;0.10;;;;;;;19.26;31.54;100591.16;16145114;19;129328;-46
2022/04/04 23:03:17;;;;;;;0.57;0.35;;;;;;;19.20;31.51;100601.31;16144940;19;129095;-44
2022/04/04 23:08:39;;;;;;;0.28;0.28;;;;;;;19.18;31.53;100592.41;16145937;19;129879;-44
2022/04/04 23:14:01;;;;;;;0.82;0.30;;;;;;;19.13;31.78;100592.38;16140093;19;130070;-42
2022/04/04 23:19:23;;;;;;;0.20;0.10;;;;;;;19.10;32.01;100592.03;16143575;19;129198;-43
2022/04/04 23:24:44;;;;;;;2.58;0.30;;;;;;;19.05;31.68;100599.19;16142860;19;128884;-43
2022/04/04 23:30:07;;;;;;;0.60;0.30;;;;;;;19.03;32.11;100595.84;16143229;19;129961;-46
2022/04/04 23:35:29;;;;;;;0.57;0.30;;;;;;;19.00;31.71;100598.28;16140460;19;129500;-46
2022/04/04 23:40:51;;;;;;;0.30;0.30;;;;;;;18.95;31.86;100592.66;16142388;19;129418;-46
2022/04/04 23:46:12;;;;;;;0.22;0.20;;;;;;;18.91;32.17;100584.03;16138655;19;129833;-48
2022/04/04 23:51:34;;;;;;;0.52;0.20;;;;;;;18.89;32.14;100586.22;16141276;19;129473;-43
2022/04/04 23:56:56;;;;;;;0.30;0.20;;;;;;;18.86;32.01;100586.72;16138286;19;130489;-47
